หน้าหลัก
METAR-TAF:

METAR-TAF

ท่าอากาศยาน :

ท่าอากาศยานนานาชาติดัลลาส-ฟอร์ตเวิร์ธ

แดลลัส-ฟอร์ตเวิร์ท, เทกซัส, สหรัฐอเมริกา

ละติจูด: 32-53-49N, ลองจิจูด: 097-01-19W, ความสูง: 183 ม.

การสังเกตสภาพอากาศปัจจุบัน

รายงานได้ทำขึ้นเมื่อ 1 ชั่วโมงและ 9 นาทีที่แล้ว ณ เวลา 09:53 UTC
ลม 12 นอตจากใต้
อุณหภูมิ 21°C
ความชื้น 83%
ความกดอากาศ 1004 hPa
ทัศนวิสัย: 16.1 กม.
มีเมฆมาก มืดครึ้มที่ความสูง 25000 ฟุต

METAR: KDFW 270953Z 19012KT 10SM OVC250 21/18 A2966 RMK AO2 SLP033 T02060178

เวลา: 05:02 (11:02 UTC)

การพยากรณ์

รายงานได้ทำขึ้นเมื่อ 2 ชั่วโมงและ 15 นาทีที่แล้ว ณ เวลา 08:47 UTC
การพยากรณ์มีผลตั้งแต่วันที่ 27 ณ เวลา 09 UTC จนถึงวันที่ 28 ณ เวลา 12 UTC
ลม 14 นอตจากใต้
ทัศนวิสัย: 10 กม.
มีเมฆเป็นส่วนมากเว้นเป็นระยะที่ความสูง 25000 ฟุต
จาก 27 ณ เวลา 1900 UTC
ลม 16 นอตจากตะวันตกเฉียงใต้โดยมีลมกระโชกได้ถึง26 นอต
ทัศนวิสัย: 10 กม.
มีเมฆมาก มืดครึ้มที่ความสูง 25000 ฟุต

TAF: KDFW 270847Z 2709/2812 19014KT P6SM BKN250 FM271900 22016G26KT P6SM OVC250

สังเกตการณ์สภาพอากาศและพยากรณ์อากาศของสนามบินมากกว่า 4000 แห่ง (รายงาน METAR และ TAF).

สถานีที่ดูได้จะแสดงไว้ด้วยจุดสีเหลืองและสีแดงบนแผนที่.

เลื่อนเมาส์ไปเหนือจุดเพื่อดูชื่อสถานี.

แล้วคลิกเพื่อดูสังเกตการณ์และการพยากรณ์สภาพอากาศ.

ในการเปลี่ยนแผนที่: คลิกที่ปุ่มสีเขียวที่มีกากบาทสีดำเพื่อซูมเข้า; ที่ปุ่มสีเขียวที่มีขีดเพื่อซูมออก; หรือที่ลูกศรสีเขียวเพื่อไปยังแผนที่ที่อยู่ติดกัน.


METAR-TAF: